Time;durP1;ratioP1;P1;durP2;ratioP2;P2;SDS_P1;SDS_P2;PMS_P1;PMS_P2;Temp;Humidity;BMP_temperature;BMP_pressure;BME280_temperature;BME280_humidity;BME280_pressure;Samples;Min_cycle;Max_cycle;Signal;HPM_P1;HPM_P2
2023/07/17 00:00:15;;;;;;;0.30;0.30;;;;;;;18.31;70.39;97093.41;29395;289;63008;-54
2023/07/17 00:00:47;;;;;;;0.40;0.40;;;;;;;18.33;71.43;97102.13;29395;220;63004;-60
2023/07/17 00:01:18;;;;;;;0.30;0.30;;;;;;;18.33;71.56;97102.13;29395;221;63009;-59
2023/07/17 00:01:49;;;;;;;0.40;0.40;;;;;;;18.34;71.37;97097.44;29394;258;64009;-55
2023/07/17 00:02:20;;;;;;;0.30;0.30;;;;;;;18.35;71.54;97099.03;29395;202;63009;-55
2023/07/17 00:02:52;;;;;;;0.40;0.40;;;;;;;18.34;72.08;97091.94;29395;224;63005;-55
2023/07/17 00:03:24;;;;;;;0.30;0.30;;;;;;;18.34;72.15;97094.69;29394;300;64013;-59
2023/07/17 00:03:55;;;;;;;0.30;0.30;;;;;;;18.34;71.30;97094.69;29395;199;63009;-56
2023/07/17 00:04:27;;;;;;;0.30;0.30;;;;;;;18.34;71.41;97091.94;29395;206;63009;-54
2023/07/17 00:04:58;;;;;;;0.30;0.30;;;;;;;18.34;71.73;97095.50;29395;198;63004;-55
2023/07/17 00:05:29;;;;;;;0.30;0.30;;;;;;;18.35;72.06;97099.84;29395;276;63009;-60
2023/07/17 00:06:01;;;;;;;0.30;0.30;;;;;;;18.34;72.58;97103.75;29395;222;63004;-54
2023/07/17 00:06:32;;;;;;;0.30;0.30;;;;;;;18.36;72.87;97106.16;29395;288;63009;-55
2023/07/17 00:07:04;;;;;;;0.30;0.30;;;;;;;18.35;70.44;97099.84;29394;251;64008;-56
2023/07/17 00:07:35;;;;;;;0.30;0.30;;;;;;;18.33;68.93;97102.13;29395;222;63008;-60
2023/07/17 00:08:07;;;;;;;0.30;0.30;;;;;;;18.35;70.54;97099.03;29395;218;63005;-55
2023/07/17 00:08:41;;;;;;;0.30;0.30;;;;;;;18.34;70.46;97098.25;29395;244;63009;-55
2023/07/17 00:09:13;;;;;;;0.30;0.30;;;;;;;18.35;70.29;97099.84;29395;216;63008;-55
2023/07/17 00:09:44;;;;;;;0.30;0.30;;;;;;;18.36;71.16;97100.66;29395;307;63009;-60
2023/07/17 00:10:15;;;;;;;0.37;0.37;;;;;;;18.36;70.95;97101.47;29395;202;63005;-60
2023/07/17 00:10:47;;;;;;;0.30;0.30;;;;;;;18.38;70.88;97103.84;29394;241;64013;-56
2023/07/17 00:11:18;;;;;;;0.30;0.30;;;;;;;18.38;69.61;97103.84;29394;237;64009;-56
2023/07/17 00:11:50;;;;;;;0.30;0.30;;;;;;;18.40;70.35;97107.06;29394;287;64013;-55
2023/07/17 00:12:22;;;;;;;0.30;0.30;;;;;;;18.38;68.31;97093.66;29395;237;63004;-60
2023/07/17 00:12:53;;;;;;;0.35;0.35;;;;;;;18.38;68.99;97101.09;29395;229;63009;-55
2023/07/17 00:13:25;;;;;;;0.30;0.30;;;;;;;18.39;69.33;97111.75;29395;239;63010;-56
2023/07/17 00:13:57;;;;;;;0.30;0.30;;;;;;;18.38;70.22;97107.38;29395;230;63009;-59
2023/07/17 00:14:29;;;;;;;0.30;0.30;;;;;;;18.39;70.24;97108.19;29394;204;64008;-56
2023/07/17 00:15:04;;;;;;;0.30;0.30;;;;;;;18.38;70.37;97103.84;29395;207;63008;-55
2023/07/17 00:15:36;;;;;;;0.37;0.37;;;;;;;18.37;68.87;97107.72;29395;211;63005;-56
2023/07/17 00:16:08;;;;;;;0.40;0.40;;;;;;;18.37;70.03;97097.53;29395;255;63019;-56
2023/07/17 00:16:39;;;;;;;0.40;0.40;;;;;;;18.36;70.57;97100.66;29395;251;63014;-56
2023/07/17 00:17:10;;;;;;;0.40;0.40;;;;;;;18.38;70.70;97101.88;29395;289;63009;-55
2023/07/17 00:17:42;;;;;;;0.30;0.30;;;;;;;18.37;70.57;97108.53;29395;275;63005;-55
2023/07/17 00:18:13;;;;;;;0.30;0.30;;;;;;;18.37;71.25;97113.22;29395;199;63009;-56
2023/07/17 00:18:44;;;;;;;0.30;0.30;;;;;;;18.36;71.38;97106.94;29395;197;63005;-55
2023/07/17 00:19:17;;;;;;;0.30;0.30;;;;;;;18.37;71.64;97114.03;29394;290;64013;-60
2023/07/17 00:19:55;;;;;;;0.40;0.40;;;;;;;18.35;70.66;97110.03;29395;325;63004;-55
2023/07/17 00:20:27;;;;;;;0.30;0.30;;;;;;;18.35;71.65;97101.78;29395;210;63009;-59
2023/07/17 00:20:58;;;;;;;0.40;0.40;;;;;;;18.35;71.65;97099.84;29395;256;63004;-59
2023/07/17 00:21:30;;;;;;;0.40;0.40;;;;;;;18.35;69.92;97104.53;29395;271;63004;-54
2023/07/17 00:22:01;;;;;;;0.30;0.30;;;;;;;18.34;70.84;97111.16;29395;201;63004;-60
2023/07/17 00:22:32;;;;;;;0.40;0.40;;;;;;;18.33;71.01;97101.31;29395;202;63008;-55
2023/07/17 00:23:05;;;;;;;0.32;0.32;;;;;;;18.33;70.95;97102.13;29394;233;64009;-61
2023/07/17 00:23:37;;;;;;;0.30;0.30;;;;;;;18.33;71.22;97106.81;29395;298;63009;-55
2023/07/17 00:24:08;;;;;;;0.32;0.32;;;;;;;18.32;70.62;97105.22;29395;212;63005;-54
2023/07/17 00:24:39;;;;;;;0.40;0.40;;;;;;;18.31;71.38;97109.09;29395;230;63009;-56
2023/07/17 00:25:11;;;;;;;0.30;0.30;;;;;;;18.31;69.94;97104.41;29395;271;63005;-55
2023/07/17 00:25:42;;;;;;;0.30;0.30;;;;;;;18.30;70.79;97108.28;29395;270;63009;-55
2023/07/17 00:26:13;;;;;;;0.30;0.30;;;;;;;18.31;70.94;97103.59;29394;197;64015;-55
2023/07/17 00:26:47;;;;;;;0.30;0.30;;;;;;;18.30;70.07;97107.50;29395;277;63012;-55
2023/07/17 00:27:19;;;;;;;0.30;0.30;;;;;;;18.30;70.19;97104.75;29394;302;64009;-55
2023/07/17 00:27:51;;;;;;;0.35;0.35;;;;;;;18.29;70.98;97094.91;29395;220;63009;-55
2023/07/17 00:28:22;;;;;;;0.40;0.40;;;;;;;18.30;70.75;97096.50;29395;259;63004;-55
2023/07/17 00:29:15;;;;;;;0.30;0.30;;;;;;;18.30;71.04;97102.00;29395;196;63009;-55
2023/07/17 00:29:46;;;;;;;0.30;0.30;;;;;;;18.28;69.62;97088.59;29394;206;64008;-55
2023/07/17 00:30:17;;;;;;;0.40;0.40;;;;;;;18.29;69.82;97089.41;29395;217;63009;-58
2023/07/17 00:30:49;;;;;;;0.30;0.30;;;;;;;18.30;69.46;97093.75;29395;249;63005;-60
2023/07/17 00:31:20;;;;;;;0.30;0.30;;;;;;;18.29;69.73;97087.47;29395;298;63009;-55
2023/07/17 00:31:52;;;;;;;0.30;0.30;;;;;;;18.29;69.79;97081.16;29395;219;63005;-54
2023/07/17 00:32:23;;;;;;;0.30;0.30;;;;;;;18.30;70.18;97088.25;29395;222;63009;-55
2023/07/17 00:32:55;;;;;;;0.30;0.30;;;;;;;18.29;70.75;97090.22;29395;261;63005;-55
2023/07/17 00:33:26;;;;;;;0.30;0.30;;;;;;;18.31;71.16;97092.62;29395;210;63009;-60
2023/07/17 00:33:57;;;;;;;0.40;0.40;;;;;;;18.31;71.63;97085.19;29395;318;63005;-55
2023/07/17 00:34:29;;;;;;;0.40;0.40;;;;;;;18.31;71.82;97081.63;29395;259;63009;-55
2023/07/17 00:35:00;;;;;;;0.40;0.40;;;;;;;18.32;72.09;97083.25;29394;253;64009;-55
2023/07/17 00:35:31;;;;;;;0.30;0.30;;;;;;;18.32;72.45;97088.72;29395;296;63009;-55
2023/07/17 00:36:06;;;;;;;0.30;0.30;;;;;;;18.33;73.32;97095.84;29395;285;63004;-55
2023/07/17 00:36:38;;;;;;;0.30;0.30;;;;;;;18.32;72.14;97083.25;29395;272;63017;-55
2023/07/17 00:37:10;;;;;;;0.30;0.30;;;;;;;18.32;71.01;97094.22;29395;277;63004;-55
2023/07/17 00:37:42;;;;;;;0.30;0.30;;;;;;;18.32;70.86;97084.03;29395;265;63008;-62
2023/07/17 00:38:13;;;;;;;0.37;0.37;;;;;;;18.32;71.02;97089.53;29395;242;63005;-55
2023/07/17 00:38:45;;;;;;;0.30;0.30;;;;;;;18.31;70.13;97092.62;29395;203;63009;-55
2023/07/17 00:39:18;;;;;;;0.30;0.30;;;;;;;18.33;71.24;97090.34;29395;198;63008;-56
2023/07/17 00:39:51;;;;;;;0.30;0.30;;;;;;;18.32;71.23;97096.97;29395;223;63009;-55
2023/07/17 00:40:23;;;;;;;0.30;0.30;;;;;;;18.32;71.23;97096.97;29394;212;64009;-61
2023/07/17 00:40:54;;;;;;;0.30;0.30;;;;;;;18.33;71.31;97095.84;29394;246;64013;-61
2023/07/17 00:41:26;;;;;;;0.30;0.30;;;;;;;18.32;71.87;97095.03;29395;197;63005;-56
2023/07/17 00:41:58;;;;;;;0.40;0.40;;;;;;;18.35;73.53;97099.03;29395;277;63009;-61
2023/07/17 00:42:29;;;;;;;0.30;0.30;;;;;;;18.36;73.14;97100.66;29395;275;63004;-55
2023/07/17 00:43:01;;;;;;;0.40;0.40;;;;;;;18.35;71.38;97099.84;29395;281;63009;-56
2023/07/17 00:43:33;;;;;;;0.30;0.30;;;;;;;18.38;73.08;97090.09;29395;228;63016;-59
2023/07/17 00:44:06;;;;;;;0.30;0.30;;;;;;;18.37;71.21;97088.50;29395;272;63009;-61
2023/07/17 00:44:38;;;;;;;0.30;0.30;;;;;;;18.38;72.17;97093.66;29395;288;63004;-54
2023/07/17 00:45:09;;;;;;;0.30;0.30;;;;;;;18.40;72.37;97096.06;29394;205;64013;-59
2023/07/17 00:45:44;;;;;;;0.30;0.30;;;;;;;18.41;72.65;97092.19;29395;287;63005;-55
2023/07/17 00:46:19;;;;;;;0.30;0.30;;;;;;;18.40;70.41;97085.06;29395;212;63027;-55
2023/07/17 00:46:52;;;;;;;0.40;0.40;;;;;;;18.42;71.14;97093.78;29395;286;63014;-55
2023/07/17 00:47:24;;;;;;;0.30;0.30;;;;;;;18.46;74.75;97094.72;29395;303;63009;-55
2023/07/17 00:47:56;;;;;;;0.30;0.30;;;;;;;18.47;73.90;97090.81;29395;348;63005;-55
2023/07/17 00:48:27;;;;;;;0.30;0.30;;;;;;;18.46;72.56;97083.72;29394;217;64013;-55
2023/07/17 00:48:59;;;;;;;0.30;0.30;;;;;;;18.46;71.75;97083.72;29395;309;63005;-55
2023/07/17 00:49:32;;;;;;;0.30;0.30;;;;;;;18.46;72.19;97083.72;29395;226;63009;-55
2023/07/17 00:50:05;;;;;;;0.32;0.32;;;;;;;18.47;72.68;97085.34;29395;242;63010;-56
2023/07/17 00:50:38;;;;;;;0.30;0.30;;;;;;;18.48;73.04;97081.44;29395;273;63009;-55
2023/07/17 00:51:09;;;;;;;0.40;0.40;;;;;;;18.49;73.45;97085.00;29395;198;63004;-55
2023/07/17 00:51:43;;;;;;;0.30;0.30;;;;;;;18.49;73.67;97080.31;29394;247;64013;-55
2023/07/17 00:52:15;;;;;;;0.30;0.30;;;;;;;18.49;72.82;97083.03;29395;221;63004;-55
2023/07/17 00:52:46;;;;;;;0.40;0.40;;;;;;;18.50;73.27;97081.09;29395;218;63008;-55
2023/07/17 00:53:19;;;;;;;0.40;0.40;;;;;;;18.52;73.08;97087.06;29394;216;64009;-55
2023/07/17 00:53:51;;;;;;;0.30;0.30;;;;;;;18.51;73.60;97089.00;29395;205;63019;-55
2023/07/17 00:54:22;;;;;;;0.30;0.30;;;;;;;18.52;73.49;97090.63;29395;225;63005;-55
2023/07/17 00:54:54;;;;;;;0.40;0.40;;;;;;;18.53;73.52;97089.47;29395;202;63009;-55
2023/07/17 00:55:26;;;;;;;0.40;0.40;;;;;;;18.54;73.06;97090.28;29395;242;63005;-59
2023/07/17 00:55:57;;;;;;;0.32;0.32;;;;;;;18.54;73.16;97096.56;29394;215;64013;-55
2023/07/17 00:56:29;;;;;;;0.30;0.30;;;;;;;18.54;73.08;97091.06;29395;203;63004;-55
2023/07/17 00:57:04;;;;;;;0.30;0.30;;;;;;;18.54;72.59;97102.06;29395;208;63027;-56
2023/07/17 00:57:36;;;;;;;0.40;0.40;;;;;;;18.53;70.60;97094.16;29394;203;64009;-55
2023/07/17 00:58:08;;;;;;;0.30;0.30;;;;;;;18.53;71.51;97103.22;29395;202;63009;-59
2023/07/17 00:58:40;;;;;;;0.30;0.30;;;;;;;18.54;71.99;97096.56;29395;247;63004;-55
2023/07/17 00:59:15;;;;;;;0.40;0.40;;;;;;;18.54;72.59;97096.56;29395;202;63008;-54
2023/07/17 00:59:48;;;;;;;0.37;0.37;;;;;;;18.55;72.43;97098.19;29395;269;63004;-54
2023/07/17 01:00:20;;;;;;;0.30;0.30;;;;;;;18.55;72.93;97095.44;29395;211;63013;-55
2023/07/17 01:00:52;;;;;;;0.30;0.30;;;;;;;18.54;69.97;97093.81;29395;253;63005;-55
2023/07/17 01:01:25;;;;;;;0.30;0.30;;;;;;;18.54;70.32;97087.53;29395;205;63009;-54
2023/07/17 01:01:57;;;;;;;0.30;0.30;;;;;;;18.52;69.74;97104.34;29395;288;63005;-60
2023/07/17 01:02:28;;;;;;;0.30;0.30;;;;;;;18.53;70.66;97096.91;29394;303;64013;-55
2023/07/17 01:03:01;;;;;;;0.32;0.32;;;;;;;18.50;69.37;97090.16;29395;241;63005;-55
2023/07/17 01:03:32;;;;;;;0.30;0.30;;;;;;;18.51;71.05;97101.94;29394;311;64009;-54
2023/07/17 01:04:05;;;;;;;0.30;0.30;;;;;;;18.57;74.59;97100.59;29394;212;64009;-55
2023/07/17 01:04:37;;;;;;;0.40;0.40;;;;;;;18.57;74.24;97098.66;29395;314;63009;-55
2023/07/17 01:05:11;;;;;;;0.30;0.30;;;;;;;18.58;73.38;97100.25;29395;311;63004;-54
2023/07/17 01:05:42;;;;;;;0.30;0.30;;;;;;;18.58;71.36;97091.22;29395;207;63009;-55
2023/07/17 01:06:14;;;;;;;0.30;0.30;;;;;;;18.58;71.90;97102.19;29395;311;63000;-55
2023/07/17 01:06:46;;;;;;;0.30;0.30;;;;;;;18.59;73.26;97103.81;29395;213;63008;-55
2023/07/17 01:07:17;;;;;;;0.37;0.37;;;;;;;18.60;74.40;97100.75;29395;235;63005;-54
2023/07/17 01:07:51;;;;;;;0.40;0.40;;;;;;;18.60;74.01;97095.25;29395;289;63009;-55
2023/07/17 01:08:23;;;;;;;0.32;0.32;;;;;;;18.59;72.08;97092.81;29394;258;64009;-55
2023/07/17 01:08:54;;;;;;;0.40;0.40;;;;;;;18.57;70.61;97090.41;29395;227;63009;-56
2023/07/17 01:09:26;;;;;;;0.30;0.30;;;;;;;18.63;74.65;97094.56;29395;199;63007;-56
2023/07/17 01:09:57;;;;;;;0.40;0.40;;;;;;;18.66;74.15;97088.41;29395;230;63009;-55
2023/07/17 01:10:29;;;;;;;0.40;0.40;;;;;;;18.67;73.52;97090.00;29395;275;63008;-59
2023/07/17 01:11:00;;;;;;;0.30;0.30;;;;;;;18.67;73.39;97092.75;29395;225;63009;-55
2023/07/17 01:11:31;;;;;;;0.30;0.30;;;;;;;18.66;73.08;97099.41;29395;231;63004;-59
2023/07/17 01:12:03;;;;;;;0.30;0.30;;;;;;;18.66;73.25;97091.16;29395;198;63014;-55
2023/07/17 01:12:35;;;;;;;0.30;0.30;;;;;;;18.66;72.58;97093.91;29395;202;63004;-55
2023/07/17 01:13:11;;;;;;;0.37;0.37;;;;;;;18.68;73.04;97099.88;29395;309;63009;-58
2023/07/17 01:13:46;;;;;;;0.30;0.30;;;;;;;18.68;72.47;97096.31;29394;203;64009;-55
2023/07/17 01:14:19;;;;;;;0.30;0.30;;;;;;;18.67;72.34;97090.00;29395;199;63008;-54
2023/07/17 01:14:50;;;;;;;0.30;0.30;;;;;;;18.68;72.60;97091.63;29394;283;64009;-55
2023/07/17 01:15:23;;;;;;;0.30;0.30;;;;;;;18.68;71.83;97086.12;29395;249;63009;-55
2023/07/17 01:15:54;;;;;;;0.40;0.40;;;;;;;18.65;70.27;97086.00;29395;282;63020;-54
2023/07/17 01:16:25;;;;;;;0.30;0.30;;;;;;;18.66;72.19;97091.16;29395;308;63009;-57
2023/07/17 01:16:56;;;;;;;0.30;0.30;;;;;;;18.68;73.00;97097.13;29395;248;63005;-57
2023/07/17 01:17:28;;;;;;;0.30;0.30;;;;;;;18.71;73.29;97096.41;29395;209;63009;-55
2023/07/17 01:17:59;;;;;;;0.40;0.40;;;;;;;18.70;73.19;97105.03;29395;265;63005;-60
2023/07/17 01:18:30;;;;;;;0.30;0.30;;;;;;;18.70;72.75;97110.50;29395;209;63009;-60
2023/07/17 01:19:01;;;;;;;0.30;0.30;;;;;;;18.68;72.53;97108.09;29395;226;63004;-56
2023/07/17 01:19:32;;;;;;;0.40;0.40;;;;;;;18.67;72.18;97112.00;29395;222;63027;-58
2023/07/17 01:20:05;;;;;;;0.30;0.30;;;;;;;18.69;72.69;97104.22;29394;230;64009;-54
2023/07/17 01:20:37;;;;;;;0.40;0.40;;;;;;;18.67;71.05;97106.50;29395;267;63009;-55
2023/07/17 01:21:11;;;;;;;0.30;0.30;;;;;;;18.68;71.49;97112.81;29395;244;63008;-55
2023/07/17 01:21:59;;;;;;;0.40;0.40;;;;;;;18.69;72.75;97115.22;29395;324;63008;-55
2023/07/17 01:22:34;;;;;;;0.35;0.35;;;;;;;18.71;71.53;97123.12;29395;274;63005;-55
2023/07/17 01:23:05;;;;;;;0.30;0.30;;;;;;;18.69;68.71;97108.91;29395;283;63009;-55
2023/07/17 01:23:37;;;;;;;0.40;0.40;;;;;;;18.67;69.25;97123.00;29395;246;63005;-55
2023/07/17 01:24:08;;;;;;;0.35;0.35;;;;;;;18.70;71.31;97121.50;29394;197;64013;-55
2023/07/17 01:24:39;;;;;;;0.30;0.30;;;;;;;18.73;73.03;97129.84;29395;197;63005;-55
2023/07/17 01:25:11;;;;;;;0.30;0.30;;;;;;;18.74;73.01;97128.72;29395;196;63009;-55
2023/07/17 01:25:42;;;;;;;0.30;0.30;;;;;;;18.72;71.48;97125.50;29395;197;63005;-56
2023/07/17 01:26:15;;;;;;;0.30;0.30;;;;;;;18.71;70.96;97134.87;29395;202;63009;-55
2023/07/17 01:26:46;;;;;;;0.30;0.30;;;;;;;18.70;70.30;97133.31;29395;229;63004;-55
2023/07/17 01:27:18;;;;;;;0.30;0.30;;;;;;;18.68;69.56;97121.84;29395;251;63004;-55
2023/07/17 01:27:49;;;;;;;0.30;0.30;;;;;;;18.66;69.79;97126.87;29395;311;63004;-55
2023/07/17 01:28:20;;;;;;;0.30;0.30;;;;;;;18.66;70.18;97124.12;29395;214;63009;-55
2023/07/17 01:28:52;;;;;;;0.30;0.30;;;;;;;18.65;69.96;97122.53;29395;222;63004;-59
2023/07/17 01:29:24;;;;;;;0.30;0.30;;;;;;;18.64;69.66;97126.41;29394;205;64013;-55
2023/07/17 01:29:55;;;;;;;0.30;0.30;;;;;;;18.62;67.14;97109.47;29395;217;63005;-55
2023/07/17 01:30:26;;;;;;;0.30;0.30;;;;;;;18.60;67.01;97111.75;29395;248;63009;-54
2023/07/17 01:30:58;;;;;;;0.30;0.30;;;;;;;18.61;68.42;97107.06;29395;203;63005;-55
2023/07/17 01:31:29;;;;;;;0.30;0.30;;;;;;;18.58;69.96;97111.25;29395;198;63009;-54
2023/07/17 01:32:00;;;;;;;0.30;0.30;;;;;;;18.55;73.42;97120.16;29395;283;63005;-54
2023/07/17 01:32:33;;;;;;;0.30;0.30;;;;;;;18.48;74.36;97117.16;29395;222;63009;-55
2023/07/17 01:33:04;;;;;;;0.30;0.30;;;;;;;18.45;74.84;97123.31;29395;254;63005;-55
2023/07/17 01:33:36;;;;;;;0.30;0.30;;;;;;;18.43;77.22;97117.38;29395;197;63009;-55
2023/07/17 01:34:07;;;;;;;0.30;0.30;;;;;;;18.40;78.17;97118.03;29395;196;63004;-54
2023/07/17 01:34:41;;;;;;;0.30;0.30;;;;;;;18.35;76.10;97110.84;29394;235;64013;-55
2023/07/17 01:35:12;;;;;;;0.30;0.30;;;;;;;18.34;80.56;97108.44;29395;206;63004;-54
2023/07/17 01:35:44;;;;;;;0.30;0.30;;;;;;;18.26;82.09;97110.09;29395;200;63009;-55
2023/07/17 01:36:16;;;;;;;0.30;0.30;;;;;;;18.20;82.15;97105.16;29395;262;63008;-55
2023/07/17 01:36:47;;;;;;;0.37;0.37;;;;;;;18.12;82.24;97106.81;29395;262;63012;-55
2023/07/17 01:37:18;;;;;;;0.40;0.40;;;;;;;18.04;83.71;97111.25;29395;297;63004;-55
2023/07/17 01:37:49;;;;;;;0.40;0.40;;;;;;;18.00;84.29;97115.81;29395;211;63009;-54
2023/07/17 01:38:21;;;;;;;0.30;0.30;;;;;;;17.95;85.85;97110.53;29395;309;63005;-55
2023/07/17 01:38:54;;;;;;;0.30;0.30;;;;;;;17.89;86.51;97109.12;29395;207;63009;-55
2023/07/17 01:39:28;;;;;;;0.30;0.30;;;;;;;17.83;86.00;97113.19;29395;260;63014;-55
2023/07/17 01:40:00;;;;;;;0.40;0.40;;;;;;;17.82;86.82;97111.59;29394;262;64013;-54
2023/07/17 01:40:31;;;;;;;0.30;0.30;;;;;;;17.80;86.61;97111.13;29395;266;63005;-55
2023/07/17 01:41:02;;;;;;;0.37;0.37;;;;;;;17.79;84.71;97115.00;29395;249;63009;-55
2023/07/17 01:41:34;;;;;;;0.30;0.30;;;;;;;17.79;85.77;97109.50;29395;225;63005;-55
2023/07/17 01:42:05;;;;;;;0.40;0.40;;;;;;;17.79;85.43;97108.72;29395;206;63009;-55
2023/07/17 01:42:36;;;;;;;0.30;0.30;;;;;;;17.79;85.82;97104.03;29395;314;63004;-55
2023/07/17 01:43:08;;;;;;;0.30;0.30;;;;;;;17.78;85.75;97107.09;29395;280;63009;-57
2023/07/17 01:43:39;;;;;;;0.32;0.32;;;;;;;17.77;86.73;97106.31;29395;285;63017;-55
2023/07/17 01:44:11;;;;;;;0.40;0.40;;;;;;;17.73;87.68;97111.66;29395;331;63008;-54
2023/07/17 01:44:42;;;;;;;0.30;0.30;;;;;;;17.70;87.46;97106.81;29395;242;63004;-56
2023/07/17 01:45:14;;;;;;;0.30;0.30;;;;;;;17.68;86.13;97111.03;29394;301;64014;-54
2023/07/17 01:45:45;;;;;;;0.37;0.37;;;;;;;17.69;86.59;97109.91;29395;279;63005;-55
2023/07/17 01:46:19;;;;;;;0.40;0.40;;;;;;;17.66;86.83;97113.34;29395;206;63009;-55
2023/07/17 01:46:50;;;;;;;0.30;0.30;;;;;;;17.64;87.32;97113.63;29395;256;63005;-60
2023/07/17 01:47:21;;;;;;;0.40;0.40;;;;;;;17.62;86.36;97106.88;29395;278;63009;-60
2023/07/17 01:47:53;;;;;;;0.40;0.40;;;;;;;17.61;87.02;97102.53;29395;202;63005;-55
2023/07/17 01:48:24;;;;;;;0.30;0.30;;;;;;;17.62;87.21;97109.63;29395;198;63014;-55
2023/07/17 01:48:56;;;;;;;0.37;0.37;;;;;;;17.63;87.49;97105.75;29395;196;63004;-54
2023/07/17 01:49:27;;;;;;;0.32;0.32;;;;;;;17.61;87.25;97100.59;29395;230;63009;-55
2023/07/17 01:49:58;;;;;;;0.40;0.40;;;;;;;17.60;87.80;97100.91;29395;197;63015;-55
2023/07/17 01:50:29;;;;;;;0.40;0.40;;;;;;;17.57;88.62;97109.81;29394;196;64013;-55
2023/07/17 01:51:01;;;;;;;0.40;0.40;;;;;;;17.54;88.31;97111.28;29395;262;63004;-55
2023/07/17 01:51:32;;;;;;;0.40;0.40;;;;;;;17.52;87.65;97110.00;29395;239;63008;-55
2023/07/17 01:52:04;;;;;;;0.30;0.30;;;;;;;17.51;87.66;97109.19;29395;222;63004;-54
2023/07/17 01:52:35;;;;;;;0.40;0.40;;;;;;;17.52;87.86;97110.00;29394;300;64009;-59
2023/07/17 01:53:07;;;;;;;0.40;0.40;;;;;;;17.54;88.73;97118.69;29395;202;63005;-55
2023/07/17 01:53:38;;;;;;;0.40;0.40;;;;;;;17.53;88.68;97122.56;29395;213;63009;-53
2023/07/17 01:54:09;;;;;;;0.40;0.40;;;;;;;17.52;88.61;97115.47;29395;260;63005;-55
2023/07/17 01:54:41;;;;;;;0.40;0.40;;;;;;;17.51;87.91;97117.41;29395;266;63009;-55
2023/07/17 01:55:12;;;;;;;0.40;0.40;;;;;;;17.51;88.19;97116.62;29395;260;63005;-54
2023/07/17 01:55:43;;;;;;;0.30;0.30;;;;;;;17.50;88.01;97115.00;29394;338;64013;-54
2023/07/17 01:56:14;;;;;;;0.30;0.30;;;;;;;17.51;88.02;97122.91;29395;203;63004;-55
2023/07/17 01:56:46;;;;;;;0.40;0.40;;;;;;;17.51;87.83;97122.09;29395;241;63009;-55
2023/07/17 01:57:17;;;;;;;0.40;0.40;;;;;;;17.52;87.94;97123.72;29395;367;63004;-55
2023/07/17 01:57:48;;;;;;;0.40;0.40;;;;;;;17.52;88.50;97116.28;29395;287;63009;-55
2023/07/17 01:58:19;;;;;;;0.40;0.40;;;;;;;17.54;89.93;97121.44;29395;295;63004;-55
2023/07/17 01:58:51;;;;;;;0.40;0.40;;;;;;;17.54;89.52;97119.50;29395;313;63008;-55
2023/07/17 01:59:26;;;;;;;0.40;0.40;;;;;;;17.53;89.54;97117.09;29395;240;63014;-55
2023/07/17 01:59:57;;;;;;;0.40;0.40;;;;;;;17.53;88.91;97111.59;29395;217;63009;-55
2023/07/17 02:00:29;;;;;;;0.37;0.37;;;;;;;17.53;88.85;97117.09;29395;218;63005;-55
2023/07/17 02:01:00;;;;;;;0.40;0.40;;;;;;;17.53;88.19;97111.59;29394;203;64013;-55
2023/07/17 02:01:33;;;;;;;0.30;0.30;;;;;;;17.54;88.56;97113.22;29395;202;63005;-55
2023/07/17 02:02:06;;;;;;;0.35;0.35;;;;;;;17.55;89.01;97110.13;29395;244;63009;-54
2023/07/17 02:02:37;;;;;;;0.40;0.40;;;;;;;17.55;87.08;97115.62;29395;248;63005;-56
2023/07/17 02:03:11;;;;;;;0.30;0.30;;;;;;;17.54;85.58;97113.22;29395;244;63017;-55
2023/07/17 02:03:44;;;;;;;0.40;0.40;;;;;;;17.53;86.06;97106.13;29395;197;63004;-54
2023/07/17 02:04:17;;;;;;;0.40;0.40;;;;;;;17.53;86.68;97117.09;29395;379;63009;-55
2023/07/17 02:04:48;;;;;;;0.30;0.30;;;;;;;17.52;86.74;97105.31;29395;364;63004;-55
2023/07/17 02:05:20;;;;;;;0.30;0.30;;;;;;;17.53;86.92;97108.88;29395;298;63009;-55
2023/07/17 02:05:52;;;;;;;0.40;0.40;;;;;;;17.52;83.56;97105.31;29395;282;63004;-55
2023/07/17 02:06:25;;;;;;;0.30;0.30;;;;;;;17.54;83.01;97107.72;29394;199;64013;-55
2023/07/17 02:06:57;;;;;;;0.30;0.30;;;;;;;17.54;83.24;97104.97;29395;230;63009;-56
2023/07/17 02:07:29;;;;;;;0.30;0.30;;;;;;;17.55;83.51;97098.34;29395;225;63009;-55
2023/07/17 02:08:00;;;;;;;0.35;0.35;;;;;;;17.55;84.56;97101.91;29395;439;63005;-55
2023/07/17 02:08:32;;;;;;;0.30;0.30;;;;;;;17.57;85.42;97107.06;29395;199;63009;-55
2023/07/17 02:09:04;;;;;;;0.40;0.40;;;;;;;17.58;85.70;97098.50;29395;206;63005;-59
2023/07/17 02:09:35;;;;;;;0.37;0.37;;;;;;;17.58;85.01;97103.19;29395;305;63025;-56
2023/07/17 02:10:07;;;;;;;0.40;0.40;;;;;;;17.57;85.02;97096.09;29395;311;63010;-55
2023/07/17 02:10:47;;;;;;;0.30;0.30;;;;;;;17.58;85.69;97104.00;29395;230;63009;-55
2023/07/17 02:11:19;;;;;;;0.40;0.40;;;;;;;17.58;85.40;97108.66;29479;337;125013;-56
2023/07/17 02:11:50;;;;;;;0.40;0.40;;;;;;;17.57;85.59;97107.06;29394;308;64013;-55
2023/07/17 02:12:22;;;;;;;0.40;0.40;;;;;;;17.58;86.08;97106.72;29395;226;63004;-59
2023/07/17 02:12:53;;;;;;;0.30;0.30;;;;;;;17.58;86.42;97108.66;29395;202;63009;-56
2023/07/17 02:13:24;;;;;;;0.40;0.40;;;;;;;17.57;86.29;97107.88;29395;244;63004;-55
2023/07/17 02:13:56;;;;;;;0.30;0.30;;;;;;;17.58;86.56;97114.16;29395;198;63008;-53
2023/07/17 02:14:27;;;;;;;0.40;0.40;;;;;;;17.57;86.14;97107.88;29395;281;63005;-55
2023/07/17 02:14:59;;;;;;;0.30;0.30;;;;;;;17.57;86.14;97107.06;29395;289;63009;-55
2023/07/17 02:15:30;;;;;;;0.40;0.40;;;;;;;17.56;85.28;97105.47;29395;200;63005;-55
2023/07/17 02:16:02;;;;;;;0.37;0.37;;;;;;;17.56;85.48;97110.94;29395;283;63009;-55
2023/07/17 02:16:36;;;;;;;0.30;0.30;;;;;;;17.55;84.70;97112.87;29395;197;63005;-55
2023/07/17 02:17:08;;;;;;;0.32;0.32;;;;;;;17.54;85.15;97108.53;29394;285;64013;-56
2023/07/17 02:17:39;;;;;;;0.40;0.40;;;;;;;17.54;84.88;97103.03;29394;208;64005;-59
2023/07/17 02:18:11;;;;;;;0.40;0.40;;;;;;;17.56;84.93;97110.94;29395;271;63009;-55
2023/07/17 02:18:43;;;;;;;0.40;0.40;;;;;;;17.54;85.02;97116.75;29395;231;63004;-55
2023/07/17 02:19:16;;;;;;;0.40;0.40;;;;;;;17.55;84.74;97112.09;29394;218;64013;-55
2023/07/17 02:19:47;;;;;;;0.40;0.40;;;;;;;17.55;84.88;97115.62;29395;238;63004;-54
2023/07/17 02:20:19;;;;;;;0.40;0.40;;;;;;;17.57;84.72;97107.06;29395;219;63009;-54
2023/07/17 02:20:51;;;;;;;0.30;0.30;;;;;;;17.57;84.83;97120.78;29394;241;64009;-55
2023/07/17 02:21:26;;;;;;;0.30;0.30;;;;;;;17.57;84.47;97115.28;29395;226;63008;-55
2023/07/17 02:21:59;;;;;;;0.35;0.35;;;;;;;17.57;83.77;97118.03;29395;320;63005;-55
2023/07/17 02:22:31;;;;;;;0.30;0.30;;;;;;;17.56;81.94;97119.97;29395;215;63009;-56
2023/07/17 02:23:02;;;;;;;0.30;0.30;;;;;;;17.57;83.09;97124.34;29395;236;63005;-59
2023/07/17 02:23:33;;;;;;;0.30;0.30;;;;;;;17.60;83.10;97114.63;29395;283;63009;-55
2023/07/17 02:24:05;;;;;;;0.40;0.40;;;;;;;17.59;82.84;97113.03;29395;204;63005;-56
2023/07/17 02:24:36;;;;;;;0.30;0.30;;;;;;;17.60;83.10;97111.87;29395;223;63009;-55
2023/07/17 02:25:08;;;;;;;0.40;0.40;;;;;;;17.61;83.26;97116.25;29394;307;64009;-55
2023/07/17 02:25:40;;;;;;;0.40;0.40;;;;;;;17.62;83.01;97110.41;29395;268;63009;-55
2023/07/17 02:26:12;;;;;;;0.40;0.40;;;;;;;17.63;82.80;97111.22;29395;206;63004;-55
2023/07/17 02:26:43;;;;;;;0.30;0.30;;;;;;;17.64;82.38;97110.09;29395;225;63009;-61
2023/07/17 02:27:15;;;;;;;0.40;0.40;;;;;;;17.64;82.17;97112.84;29395;259;63004;-55
2023/07/17 02:27:47;;;;;;;0.35;0.35;;;;;;;17.65;82.36;97119.97;29395;284;63009;-55
2023/07/17 02:28:18;;;;;;;0.37;0.37;;;;;;;17.63;81.92;97113.97;29395;242;63000;-56
2023/07/17 02:28:49;;;;;;;0.30;0.30;;;;;;;17.65;81.59;97117.22;29394;202;64013;-56
2023/07/17 02:29:22;;;;;;;0.30;0.30;;;;;;;17.65;81.40;97125.44;29395;253;63004;-55
2023/07/17 02:29:54;;;;;;;0.30;0.30;;;;;;;17.65;81.49;97120.78;29395;315;63016;-55
2023/07/17 02:30:25;;;;;;;0.37;0.37;;;;;;;17.66;81.49;97127.87;29395;308;63005;-55
2023/07/17 02:30:56;;;;;;;0.40;0.40;;;;;;;17.67;82.36;97128.66;29395;202;63009;-55
2023/07/17 02:31:27;;;;;;;0.30;0.30;;;;;;;17.68;81.76;97124.75;29395;202;63005;-55
2023/07/17 02:31:59;;;;;;;0.30;0.30;;;;;;;17.70;81.60;97127.97;29395;247;63009;-55
2023/07/17 02:32:30;;;;;;;0.30;0.30;;;;;;;17.71;81.64;97119.41;29395;285;63005;-55